Etusivu
METAR-TAF:

METAR-TAF

Lentoasemat :

In Salah, Algeria

Leveyspiiri: 27-15N, Pituuspiiri: 002-31E, korkeus merenpinnasta: 269 m

Tämänhetkinen sää

Tämä raportti tehtiin 12 minuuttia sitten, kello 11.00 UTC
Tuuli 1 kn idästä/koillisesta
Lämpötila 23°C
Kosteus 25%
Ilmanpaine 1021 hPa
Näkyvyys: 6000 m

METAR: DAUI 231100Z 06001KT 6000 NSC 23/02 Q1021

Aika: 12:12 (11:12 UTC)

Sääennuste

Tämä raportti tehtiin 6 tuntia ja 12 minuuttia sitten, kello 05.00 UTC
Ennuste voimassa 23. päivästä klo 06 UTC - 24. päivään klo 06 UTC
Tuuli 2 kn eri suunnista
Näkyvyys: 8000 m
Ajoittain
23. päivästä klo 13 UTC - 23. päivään klo 17 UTC
Tuuli 10 kn lännestä

TAF: DAUI 230500Z 2306/2406 VRB02KT 8000 NSC TEMPO 2313/2317 26010KT

Säähavainnot ja -ennusteet yli 4000 lentoasemalta (METAR- ja TAF-raportit).

Käytössä olevat sääasemat on merkitty karttaan keltaisilla ja punaisilla pisteillä.

Aseta hiiri pisteen päälle nähdäksesi sääaseman nimen.

Klikkaa sitten nähdäksesi säähavainnot ja -ennusteet.

Kartan vaihtaminen: klikkaa mustalla rastilla varustettuja vihreitä pisteitä, niin voit zoomata sisään; viivalla varustettua vihreää pistettä, niin voit zoomata ulos tai vihreitä nuolia, niin pääset viereisille kartoille.


METAR-TAF: